Time;durP1;ratioP1;P1;durP2;ratioP2;P2;SDS_P1;SDS_P2;PMS_P1;PMS_P2;Temp;Humidity;BMP_temperature;BMP_pressure;BME280_temperature;BME280_humidity;BME280_pressure;Samples;Min_cycle;Max_cycle;Signal;HPM_P1;HPM_P2
2022/07/02 00:01:50;;;;;;;2.10;0.30;;;14.50;99.90;;;;;;10178433;29;20517;-86
2022/07/02 00:06:52;;;;;;;0.47;0.40;;;14.40;99.90;;;;;;10199409;29;20063;-85
2022/07/02 00:11:58;;;;;;;1.00;0.45;;;14.20;99.90;;;;;;10178186;29;20527;-85
2022/07/02 00:17:03;;;;;;;1.08;0.40;;;14.20;99.90;;;;;;10174784;29;20058;-85
2022/07/02 00:22:06;;;;;;;2.42;0.45;;;14.20;99.90;;;;;;10171532;29;20514;-86
2022/07/02 00:27:13;;;;;;;2.67;0.43;;;14.10;99.90;;;;;;10171407;29;20075;-85
2022/07/02 00:32:15;;;;;;;0.90;0.40;;;14.10;99.90;;;;;;10194863;29;20052;-85
2022/07/02 00:37:19;;;;;;;0.75;0.30;;;14.00;99.90;;;;;;10163836;29;20066;-85
2022/07/02 00:42:24;;;;;;;1.95;0.55;;;14.00;99.90;;;;;;10174558;29;20139;-85
2022/07/02 00:47:29;;;;;;;1.98;0.40;;;14.00;99.90;;;;;;10163887;29;20138;-85
2022/07/02 00:52:31;;;;;;;3.00;0.50;;;13.90;99.90;;;;;;10172833;29;20070;-85
2022/07/02 00:57:33;;;;;;;1.98;0.40;;;13.70;99.90;;;;;;10194943;29;20056;-85
2022/07/02 01:02:37;;;;;;;2.60;0.50;;;13.70;99.90;;;;;;10174913;29;20070;-85
2022/07/02 01:07:45;;;;;;;1.00;0.50;;;13.70;99.90;;;;;;10161912;29;20056;-85
2022/07/02 01:12:49;;;;;;;1.48;0.40;;;13.60;99.90;;;;;;10188654;29;20051;-85
2022/07/02 01:17:50;;;;;;;1.08;0.40;;;13.60;99.90;;;;;;10179319;29;20499;-86
2022/07/02 01:22:52;;;;;;;2.20;0.40;;;13.50;99.90;;;;;;10179901;29;20082;-86
2022/07/02 01:27:54;;;;;;;1.10;0.47;;;13.30;99.90;;;;;;10177313;29;20059;-86
2022/07/02 01:32:56;;;;;;;0.70;0.40;;;13.40;99.90;;;;;;10180658;29;20066;-86
2022/07/02 01:37:58;;;;;;;2.78;0.40;;;13.30;99.90;;;;;;10190590;29;20066;-85
2022/07/02 01:43:00;;;;;;;1.80;0.50;;;13.30;99.90;;;;;;10163325;29;20062;-85
2022/07/02 01:48:02;;;;;;;1.58;0.30;;;13.30;99.90;;;;;;10160901;29;20060;-86
2022/07/02 01:53:03;;;;;;;3.38;0.50;;;13.20;99.90;;;;;;10193235;29;20071;-86
2022/07/02 01:58:06;;;;;;;3.30;0.40;;;13.10;99.90;;;;;;10188232;29;20103;-86
2022/07/02 02:03:08;;;;;;;2.38;0.50;;;13.10;99.90;;;;;;10203190;29;20044;-86
2022/07/02 02:08:10;;;;;;;0.32;0.30;;;13.10;99.90;;;;;;10183421;29;20055;-86
2022/07/02 02:13:12;;;;;;;1.25;0.38;;;13.10;99.90;;;;;;10167973;29;20131;-86
2022/07/02 02:18:14;;;;;;;4.00;0.40;;;13.00;99.90;;;;;;10181983;29;20058;-85
2022/07/02 02:23:15;;;;;;;1.40;0.55;;;13.00;99.90;;;;;;10181212;29;20135;-85
2022/07/02 02:28:17;;;;;;;2.55;0.60;;;12.90;99.90;;;;;;10185254;29;20062;-85
2022/07/02 02:33:19;;;;;;;2.22;0.50;;;12.80;99.90;;;;;;10182223;29;20056;-85
2022/07/02 02:38:22;;;;;;;2.35;0.47;;;12.80;99.90;;;;;;10185384;29;20508;-86
2022/07/02 02:43:23;;;;;;;2.72;1.13;;;12.70;99.90;;;;;;10185481;29;20063;-85
2022/07/02 02:48:26;;;;;;;0.52;0.40;;;12.60;99.90;;;;;;10168312;29;20143;-86
2022/07/02 02:53:27;;;;;;;2.38;0.40;;;12.40;99.90;;;;;;10170215;29;20146;-85
2022/07/02 02:58:29;;;;;;;4.13;0.68;;;12.40;99.90;;;;;;10179701;29;20059;-85
2022/07/02 03:03:31;;;;;;;2.45;0.47;;;12.50;99.90;;;;;;10178418;29;20056;-85
2022/07/02 03:08:33;;;;;;;1.23;0.38;;;12.50;99.90;;;;;;10184940;29;20359;-84
2022/07/02 03:13:35;;;;;;;4.72;0.70;;;12.50;99.90;;;;;;10198565;29;20447;-85
2022/07/02 03:18:37;;;;;;;10.50;0.60;;;12.50;99.90;;;;;;10189790;29;20063;-86
2022/07/02 03:23:39;;;;;;;4.03;0.70;;;12.40;99.90;;;;;;10199141;29;20043;-85
2022/07/02 03:28:40;;;;;;;4.75;0.40;;;12.40;99.90;;;;;;10200462;29;20151;-86
2022/07/02 03:33:42;;;;;;;1.92;0.52;;;12.30;99.90;;;;;;10167581;29;20055;-86
2022/07/02 03:38:44;;;;;;;6.55;0.75;;;12.20;99.90;;;;;;10187279;29;20070;-85
2022/07/02 03:43:49;;;;;;;5.78;0.60;;;12.20;99.90;;;;;;10160750;29;22474;-85
2022/07/02 03:48:50;;;;;;;4.03;0.50;;;12.10;99.90;;;;;;10196274;29;20147;-85
2022/07/02 03:53:52;;;;;;;2.63;0.60;;;12.20;99.90;;;;;;10197473;29;20043;-86
2022/07/02 03:58:54;;;;;;;1.10;0.50;;;12.20;99.90;;;;;;10197824;29;20055;-86
2022/07/02 04:03:56;;;;;;;7.47;0.85;;;12.30;99.90;;;;;;10193509;29;20404;-86
2022/07/02 04:08:58;;;;;;;4.00;0.50;;;12.30;99.90;;;;;;10179905;29;20166;-85
2022/07/02 04:14:00;;;;;;;2.35;0.40;;;12.40;99.90;;;;;;10165964;29;20055;-86
2022/07/02 04:19:01;;;;;;;1.77;0.60;;;12.50;99.90;;;;;;10196647;29;20051;-85
2022/07/02 04:24:18;;;;;;;1.50;0.60;;;12.60;99.90;;;;;;10166933;29;20770;-86
2022/07/02 04:29:20;;;;;;;3.67;0.65;;;12.70;99.90;;;;;;10170406;29;20454;-86
2022/07/02 04:34:22;;;;;;;6.57;0.65;;;12.80;99.90;;;;;;10181660;29;20056;-86
2022/07/02 04:39:25;;;;;;;2.17;0.75;;;12.90;99.90;;;;;;10181099;29;20521;-86
2022/07/02 04:44:27;;;;;;;2.20;0.75;;;13.00;99.90;;;;;;10179265;29;20052;-85
2022/07/02 04:49:29;;;;;;;7.40;0.90;;;13.10;99.90;;;;;;10194928;29;20111;-85
2022/07/02 04:54:30;;;;;;;0.98;0.50;;;13.20;99.90;;;;;;10176779;29;20150;-87
2022/07/02 04:59:32;;;;;;;1.33;0.50;;;13.40;99.90;;;;;;10193387;29;20052;-87
2022/07/02 05:04:40;;;;;;;1.00;0.60;;;13.50;99.90;;;;;;10175663;29;20040;-87
2022/07/02 05:09:42;;;;;;;2.97;0.65;;;13.60;99.90;;;;;;10195862;29;20047;-86
2022/07/02 05:14:44;;;;;;;3.97;1.08;;;13.70;99.90;;;;;;10161967;29;20059;-85
2022/07/02 05:19:46;;;;;;;2.88;1.02;;;13.90;99.90;;;;;;10174317;29;20070;-86
2022/07/02 05:24:47;;;;;;;5.03;1.10;;;14.00;99.90;;;;;;10190691;29;20046;-86
2022/07/02 05:29:49;;;;;;;1.67;0.90;;;14.20;99.90;;;;;;10176092;29;20210;-86
2022/07/02 05:34:51;;;;;;;6.90;1.13;;;14.30;99.90;;;;;;10196958;29;20431;-86
2022/07/02 05:39:58;;;;;;;1.85;1.00;;;14.40;99.90;;;;;;10197167;29;20048;-86
2022/07/02 05:45:00;;;;;;;4.13;1.00;;;14.40;99.90;;;;;;10180454;29;20068;-86
2022/07/02 05:50:02;;;;;;;2.90;1.00;;;14.60;99.90;;;;;;10180912;29;20067;-86
2022/07/02 05:55:05;;;;;;;3.17;0.77;;;14.70;99.90;;;;;;10166283;29;20059;-85
2022/07/02 06:00:10;;;;;;;3.90;0.95;;;14.90;99.90;;;;;;10194613;29;20534;-86
2022/07/02 06:10:32;;;;;;;2.92;1.00;;;15.10;99.90;;;;;;10195753;29;20059;-86
2022/07/02 06:15:33;;;;;;;1.77;1.00;;;15.20;99.90;;;;;;10198016;29;20419;-86
2022/07/02 06:20:35;;;;;;;1.55;0.95;;;15.40;99.90;;;;;;10197876;29;20909;-88
2022/07/02 06:25:37;;;;;;;1.83;0.90;;;15.50;99.90;;;;;;10178365;29;20107;-87
2022/07/02 06:30:39;;;;;;;2.15;0.80;;;15.70;99.90;;;;;;10163433;29;20087;-87
2022/07/02 06:35:42;;;;;;;4.93;1.30;;;15.80;99.90;;;;;;10176927;29;20063;-88
2022/07/02 06:40:44;;;;;;;2.78;1.00;;;16.00;99.90;;;;;;10193572;29;20063;-87
2022/07/02 06:45:46;;;;;;;3.08;0.80;;;16.10;99.90;;;;;;10174980;29;20056;-87
2022/07/02 06:50:48;;;;;;;3.90;0.90;;;16.20;99.90;;;;;;10196898;29;20062;-88
2022/07/02 06:55:50;;;;;;;1.95;0.90;;;16.40;99.90;;;;;;10145206;29;20056;-88
2022/07/02 07:00:52;;;;;;;4.15;1.17;;;16.60;99.90;;;;;;10177840;29;20043;-88
2022/07/02 07:05:54;;;;;;;3.65;0.98;;;16.70;99.90;;;;;;10154453;29;20194;-88
2022/07/02 07:10:56;;;;;;;3.97;1.13;;;16.90;99.90;;;;;;10178303;29;20123;-90
2022/07/02 07:15:59;;;;;;;3.42;0.80;;;17.20;99.90;;;;;;10159940;29;20135;-87
2022/07/02 07:21:01;;;;;;;1.67;0.90;;;17.30;99.90;;;;;;10171494;29;20090;-87
2022/07/02 07:26:03;;;;;;;6.68;0.70;;;17.50;99.90;;;;;;10109596;29;20048;-89
2022/07/02 07:31:05;;;;;;;1.90;0.70;;;17.70;99.90;;;;;;10164199;29;20051;-89
2022/07/02 07:36:07;;;;;;;1.42;0.70;;;18.00;99.90;;;;;;10197447;29;20114;-88
2022/07/02 07:41:09;;;;;;;4.13;1.25;;;18.20;99.90;;;;;;10189390;29;20056;-88
2022/07/02 07:46:11;;;;;;;3.03;0.90;;;18.40;99.90;;;;;;10172658;29;20048;-88
2022/07/02 07:51:13;;;;;;;3.17;0.75;;;18.50;99.90;;;;;;10173903;29;20066;-89
2022/07/02 07:56:18;;;;;;;0.98;0.88;;;18.70;99.90;;;;;;10176573;29;20060;-89
2022/07/02 08:01:22;;;;;;;;;;;19.00;99.90;;;;;;10176764;29;20048;-89
2022/07/02 08:06:24;;;;;;;3.15;0.70;;;19.20;99.90;;;;;;10191621;29;19930;-88
2022/07/02 08:11:26;;;;;;;0.90;0.47;;;19.50;99.90;;;;;;10113383;29;20048;-88
2022/07/02 08:16:28;;;;;;;5.13;0.60;;;19.70;99.90;;;;;;10186312;29;20079;-88
2022/07/02 08:21:30;;;;;;;2.50;0.60;;;19.90;99.90;;;;;;10172284;29;20056;-88
2022/07/02 08:26:32;;;;;;;2.08;0.60;;;20.10;99.90;;;;;;10152547;29;20060;-89
2022/07/02 08:31:37;;;;;;;2.72;0.60;;;20.10;99.90;;;;;;10180756;29;20064;-89
2022/07/02 08:36:39;;;;;;;2.35;0.52;;;20.40;99.90;;;;;;10186389;29;20056;-89
2022/07/02 08:41:43;;;;;;;3.78;0.57;;;20.70;99.90;;;;;;10165497;29;20051;-89
2022/07/02 08:46:46;;;;;;;0.70;0.30;;;20.70;99.90;;;;;;10155549;29;20051;-88
2022/07/02 08:52:12;;;;;;;0.60;0.30;;;20.90;99.90;;;;;;10169338;29;20481;-88
2022/07/02 08:57:13;;;;;;;0.95;0.35;;;21.30;99.90;;;;;;10183098;29;20052;-89
2022/07/02 09:02:18;;;;;;;2.05;0.30;;;21.50;99.90;;;;;;10179604;29;20047;-89
2022/07/02 09:07:21;;;;;;;0.25;0.20;;;21.60;99.20;;;;;;10154871;29;20551;-89
2022/07/02 09:12:25;;;;;;;0.75;0.20;;;21.90;95.90;;;;;;10178128;29;20064;-89
2022/07/02 09:17:30;;;;;;;0.57;0.10;;;22.00;94.60;;;;;;10174343;29;20110;-90
2022/07/02 09:22:37;;;;;;;0.20;0.10;;;22.10;95.10;;;;;;10158462;29;20065;-90
2022/07/02 09:27:40;;;;;;;1.85;0.20;;;22.30;92.10;;;;;;10171412;29;20052;-90
2022/07/02 09:32:45;;;;;;;1.17;0.10;;;22.60;91.90;;;;;;10174458;29;20457;-89
2022/07/02 09:37:48;;;;;;;0.90;0.15;;;22.90;91.60;;;;;;10189183;29;20055;-89
2022/07/02 09:42:50;;;;;;;1.30;0.10;;;22.90;90.50;;;;;;10173174;29;20064;-89
2022/07/02 09:47:53;;;;;;;1.02;0.20;;;23.20;90.00;;;;;;10189697;29;20070;-89
2022/07/02 09:52:57;;;;;;;3.15;0.30;;;23.60;88.10;;;;;;10171366;29;20059;-89
2022/07/02 09:58:01;;;;;;;1.30;0.20;;;23.80;87.00;;;;;;10158686;29;20170;-88
2022/07/02 10:03:02;;;;;;;0.20;0.20;;;24.00;82.10;;;;;;10150696;29;20062;-89
2022/07/02 10:08:05;;;;;;;1.85;0.10;;;23.80;81.20;;;;;;10156784;29;20052;-90
2022/07/02 10:13:09;;;;;;;0.80;0.20;;;23.90;82.70;;;;;;10093156;29;20511;-90
2022/07/02 10:18:11;;;;;;;0.40;0.10;;;24.20;83.00;;;;;;10149553;29;20142;-90
2022/07/02 10:23:15;;;;;;;1.23;0.10;;;24.50;80.10;;;;;;10164001;29;20160;-90
2022/07/02 10:28:19;;;;;;;0.22;0.10;;;24.70;75.00;;;;;;10076376;29;20148;-90
2022/07/02 10:33:59;;;;;;;1.00;0.10;;;24.80;75.20;;;;;;10117789;29;20062;-89
2022/07/02 10:39:02;;;;;;;1.63;0.10;;;24.80;75.90;;;;;;10132417;29;20061;-90
2022/07/02 10:44:04;;;;;;;0.43;0.05;;;25.20;73.80;;;;;;10109527;29;20048;-90
2022/07/02 10:49:06;;;;;;;0.32;0.10;;;25.40;71.30;;;;;;10154008;29;20511;-90
2022/07/02 10:54:09;;;;;;;0.65;0.10;;;25.40;69.20;;;;;;10120561;29;20056;-90
2022/07/02 10:59:24;;;;;;;0.25;0.10;;;25.20;67.00;;;;;;10123243;29;20131;-90
2022/07/02 11:04:26;;;;;;;1.48;0.10;;;25.80;65.60;;;;;;10164485;29;20060;-90
2022/07/02 11:09:28;;;;;;;0.30;0.10;;;25.70;67.30;;;;;;10144620;29;20060;-91
2022/07/02 11:14:32;;;;;;;1.15;0.10;;;26.50;66.40;;;;;;10104471;29;20136;-90
2022/07/02 11:19:34;;;;;;;1.17;0.10;;;26.90;65.50;;;;;;10135237;29;20059;-90
2022/07/02 11:24:36;;;;;;;0.28;0.17;;;26.90;61.50;;;;;;10155014;29;20080;-91
2022/07/02 11:29:39;;;;;;;0.77;0.10;;;26.30;61.50;;;;;;10153133;29;20056;-90
2022/07/02 11:34:41;;;;;;;1.58;0.20;;;26.40;64.20;;;;;;10136443;29;20079;-90
2022/07/02 11:39:44;;;;;;;1.35;0.10;;;26.90;61.20;;;;;;10145495;29;20500;-89
2022/07/02 11:44:46;;;;;;;1.48;0.10;;;26.90;62.60;;;;;;10157372;29;20495;-90
2022/07/02 11:49:48;;;;;;;0.60;0.00;;;27.20;60.00;;;;;;10154082;29;20584;-90
2022/07/02 11:54:50;;;;;;;0.35;0.10;;;27.50;58.00;;;;;;10151760;29;20515;-90
2022/07/02 11:59:52;;;;;;;0.50;0.10;;;28.00;61.70;;;;;;10141095;29;20058;-91
2022/07/02 12:04:55;;;;;;;0.10;0.10;;;28.30;59.10;;;;;;10162915;29;20108;-91
2022/07/02 12:09:57;;;;;;;0.20;0.10;;;28.30;58.90;;;;;;10143249;29;20047;-91
2022/07/02 12:15:05;;;;;;;0.10;0.00;;;28.20;60.80;;;;;;10124920;29;20044;-90
2022/07/02 12:20:08;;;;;;;1.23;0.13;;;28.60;58.20;;;;;;10162876;29;20605;-90
2022/07/02 12:25:10;;;;;;;0.17;0.10;;;28.70;60.20;;;;;;10126700;29;20055;-90
2022/07/02 12:30:13;;;;;;;1.35;0.10;;;28.60;59.50;;;;;;10164550;29;20055;-90
2022/07/02 12:35:16;;;;;;;3.20;0.10;;;28.90;59.40;;;;;;10132192;29;20364;-90
2022/07/02 12:40:21;;;;;;;0.30;0.10;;;28.70;55.20;;;;;;10145173;29;20512;-90
2022/07/02 12:45:28;;;;;;;1.55;0.13;;;28.50;59.20;;;;;;10114059;29;20067;-90
2022/07/02 12:50:33;;;;;;;1.98;0.10;;;28.30;56.90;;;;;;10144789;29;20052;-90
2022/07/02 12:55:42;;;;;;;0.60;0.10;;;28.50;57.20;;;;;;10140701;29;21641;-90
2022/07/02 13:00:44;;;;;;;0.63;0.10;;;28.50;58.30;;;;;;10147283;29;20059;-91
2022/07/02 13:05:52;;;;;;;1.85;0.10;;;28.70;58.50;;;;;;10146989;29;21003;-90
2022/07/02 13:10:56;;;;;;;0.88;0.20;;;28.70;59.20;;;;;;10116923;29;20048;-90
2022/07/02 13:15:59;;;;;;;0.35;0.10;;;28.00;58.50;;;;;;10146830;29;20522;-92
2022/07/02 13:21:01;;;;;;;2.20;0.10;;;28.30;57.70;;;;;;10151094;29;20055;-91
2022/07/02 13:26:03;;;;;;;0.10;0.10;;;28.40;59.50;;;;;;10142554;29;20083;-91
2022/07/02 13:31:05;;;;;;;0.10;0.10;;;28.20;59.00;;;;;;10163497;29;20068;-90
2022/07/02 13:36:06;;;;;;;0.20;0.10;;;28.80;59.50;;;;;;10073896;29;20130;-90
2022/07/02 13:41:11;;;;;;;0.90;0.10;;;29.30;59.20;;;;;;10144968;29;20143;-91
2022/07/02 13:46:13;;;;;;;0.43;0.30;;;29.70;56.50;;;;;;10141401;29;20059;-91
2022/07/02 13:51:15;;;;;;;2.25;0.20;;;29.20;56.30;;;;;;10132679;29;20071;-91
2022/07/02 13:56:17;;;;;;;1.35;0.10;;;29.30;57.80;;;;;;10131496;29;20053;-91
2022/07/02 14:01:19;;;;;;;1.88;0.10;;;29.60;57.20;;;;;;10154762;29;20410;-91
2022/07/02 14:06:21;;;;;;;0.10;0.00;;;29.30;57.80;;;;;;10164030;29;20467;-90
2022/07/02 14:11:24;;;;;;;0.30;0.10;;;29.90;57.00;;;;;;10155690;29;20072;-91
2022/07/02 14:16:26;;;;;;;0.35;0.10;;;29.70;57.40;;;;;;10111819;29;20239;-91
2022/07/02 14:21:28;;;;;;;0.40;0.20;;;29.90;56.30;;;;;;10142481;29;20123;-90
2022/07/02 14:26:30;;;;;;;6.53;0.20;;;29.70;54.60;;;;;;10138474;29;20115;-90
2022/07/02 14:31:32;;;;;;;14.48;0.30;;;29.90;56.80;;;;;;10154609;29;20076;-90
2022/07/02 14:36:33;;;;;;;0.00;0.00;;;29.70;57.30;;;;;;10134691;29;20053;-90
2022/07/02 14:41:36;;;;;;;5.22;0.40;;;29.90;54.70;;;;;;10133572;29;20989;-91
2022/07/02 14:46:39;;;;;;;15.70;0.28;;;30.30;56.10;;;;;;10193580;29;20086;-90
2022/07/02 14:51:41;;;;;;;0.57;0.10;;;30.80;54.70;;;;;;10178108;29;20056;-90
2022/07/02 14:56:43;;;;;;;0.93;0.10;;;31.00;54.30;;;;;;10179506;29;20505;-90
2022/07/02 15:01:45;;;;;;;0.50;0.30;;;30.60;52.00;;;;;;10173581;29;20055;-90
2022/07/02 15:06:48;;;;;;;3.97;0.32;;;30.50;52.10;;;;;;10161984;29;20051;-90
2022/07/02 15:11:50;;;;;;;13.13;0.45;;;31.10;52.30;;;;;;10192829;29;20087;-90
2022/07/02 15:16:52;;;;;;;0.45;0.22;;;31.20;54.00;;;;;;10157655;29;20130;-90
2022/07/02 15:21:57;;;;;;;7.53;0.20;;;31.10;51.90;;;;;;10158355;29;20058;-90
2022/07/02 15:27:08;;;;;;;3.13;0.10;;;32.00;53.10;;;;;;10176001;29;20070;-90
2022/07/02 15:32:13;;;;;;;0.28;0.10;;;32.00;52.50;;;;;;10175836;29;20058;-90
2022/07/02 15:37:15;;;;;;;0.43;0.00;;;32.30;51.80;;;;;;10185679;29;20061;-91
2022/07/02 15:42:25;;;;;;;0.50;0.10;;;32.30;51.00;;;;;;10162136;29;20488;-91
2022/07/02 15:47:29;;;;;;;1.15;0.50;;;32.70;49.80;;;;;;10166764;29;20099;-91
2022/07/02 15:52:35;;;;;;;3.35;0.60;;;32.40;49.30;;;;;;10186189;29;20075;-90
2022/07/02 15:57:49;;;;;;;0.95;0.13;;;31.80;49.30;;;;;;10191856;29;20096;-91
2022/07/02 16:02:58;;;;;;;2.83;0.10;;;32.30;50.60;;;;;;10161408;29;20060;-90
2022/07/02 16:08:03;;;;;;;0.70;0.10;;;32.10;48.80;;;;;;10176726;29;20051;-90
2022/07/02 16:13:06;;;;;;;0.57;0.20;;;32.80;48.70;;;;;;10129149;29;20146;-90
2022/07/02 16:18:15;;;;;;;1.48;0.10;;;32.10;48.10;;;;;;10091192;29;20088;-91
2022/07/02 16:23:18;;;;;;;0.35;0.10;;;33.00;48.80;;;;;;10153046;29;20486;-90
2022/07/02 16:28:28;;;;;;;0.68;0.10;;;33.10;48.10;;;;;;10030333;29;20066;-90
2022/07/02 16:33:50;;;;;;;2.00;0.50;;;32.60;47.30;;;;;;10189890;29;20052;-90
2022/07/02 16:38:55;;;;;;;0.85;0.10;;;32.10;47.90;;;;;;10186621;29;20052;-90
2022/07/02 16:44:03;;;;;;;1.55;0.10;;;32.00;47.90;;;;;;10140608;29;20107;-91
2022/07/02 16:49:08;;;;;;;0.20;0.10;;;32.70;48.40;;;;;;10125376;29;20055;-90
2022/07/02 16:54:14;;;;;;;0.52;0.15;;;32.70;49.60;;;;;;10172690;29;20047;-91
2022/07/02 16:59:18;;;;;;;0.50;0.10;;;32.20;48.00;;;;;;10168783;29;20055;-90
2022/07/02 17:04:21;;;;;;;1.10;0.10;;;33.00;49.50;;;;;;10124079;29;20055;-90
2022/07/02 17:09:26;;;;;;;;;;;33.30;48.90;;;;;;10049629;29;20065;-90
2022/07/02 17:14:28;;;;;;;0.32;0.08;;;33.30;47.50;;;;;;10074762;29;19927;-91
2022/07/02 17:19:32;;;;;;;0.45;0.00;;;33.40;48.30;;;;;;10159644;29;20056;-90
2022/07/02 17:24:35;;;;;;;0.73;0.20;;;33.30;48.00;;;;;;10121741;29;20056;-91
2022/07/02 17:29:37;;;;;;;2.55;0.10;;;33.10;46.90;;;;;;10106451;29;20070;-91
2022/07/02 17:34:45;;;;;;;3.22;0.10;;;33.20;48.10;;;;;;10040310;29;20121;-91
2022/07/02 17:40:19;;;;;;;0.80;0.10;;;33.00;48.90;;;;;;10043869;29;20052;-91
2022/07/02 17:45:23;;;;;;;3.15;0.20;;;32.90;47.80;;;;;;10103041;29;20570;-91
2022/07/02 17:50:25;;;;;;;1.40;0.20;;;32.60;46.90;;;;;;10150545;29;20063;-90
2022/07/02 17:55:28;;;;;;;0.50;0.10;;;33.00;48.00;;;;;;10177115;29;20105;-90
2022/07/02 18:00:31;;;;;;;2.17;0.70;;;32.90;48.70;;;;;;10129469;29;20067;-90
2022/07/02 18:05:34;;;;;;;0.35;0.10;;;32.90;48.40;;;;;;10178747;29;20060;-90
2022/07/02 18:10:46;;;;;;;0.20;0.17;;;32.80;48.20;;;;;;10174874;29;20564;-90
2022/07/02 18:15:50;;;;;;;0.40;0.20;;;32.80;48.40;;;;;;10114139;29;20116;-90
2022/07/02 18:21:00;;;;;;;0.45;0.10;;;32.50;48.60;;;;;;10095851;29;20323;-90
2022/07/02 18:26:09;;;;;;;0.40;0.10;;;31.80;49.90;;;;;;9866219;29;20142;-90
2022/07/02 18:31:25;;;;;;;0.68;0.10;;;31.20;51.10;;;;;;9966618;29;20085;-92
2022/07/02 18:36:50;;;;;;;0.88;0.20;;;30.40;50.90;;;;;;9885337;29;20076;-91
2022/07/02 18:42:05;;;;;;;2.22;0.10;;;29.90;52.70;;;;;;9894820;29;20084;-90
2022/07/02 18:47:24;;;;;;;3.08;0.13;;;29.30;53.80;;;;;;9819354;29;20063;-90
2022/07/02 18:52:34;;;;;;;0.50;0.30;;;28.80;54.80;;;;;;9743809;29;20922;-91
2022/07/02 18:57:52;;;;;;;0.20;0.10;;;28.30;55.80;;;;;;9811645;29;20053;-90
2022/07/02 19:03:06;;;;;;;1.02;0.17;;;27.80;56.20;;;;;;10055570;29;20512;-89
2022/07/02 19:08:25;;;;;;;2.70;0.20;;;27.50;57.60;;;;;;9877766;29;20052;-91
2022/07/02 19:13:42;;;;;;;1.58;0.20;;;27.20;58.20;;;;;;10016784;29;20055;-90
2022/07/02 19:18:52;;;;;;;4.43;0.15;;;26.90;59.20;;;;;;9959041;29;20057;-91
2022/07/02 19:23:58;;;;;;;3.20;0.10;;;26.60;59.90;;;;;;9973683;29;20131;-90
2022/07/02 19:34:47;;;;;;;0.60;0.25;;;26.10;61.60;;;;;;10018103;29;20056;-92
2022/07/02 19:39:50;;;;;;;2.60;0.30;;;25.90;63.30;;;;;;9956302;29;20056;-91
2022/07/02 19:44:52;;;;;;;2.15;0.30;;;25.60;63.50;;;;;;10129238;29;20144;-88
2022/07/02 19:49:55;;;;;;;0.75;0.22;;;25.40;64.30;;;;;;10108965;29;20058;-89
2022/07/02 19:54:57;;;;;;;2.85;0.30;;;25.20;65.10;;;;;;10092202;29;20131;-89
2022/07/02 20:00:00;;;;;;;5.13;0.43;;;25.00;66.50;;;;;;10114711;29;20059;-88
2022/07/02 20:05:09;;;;;;;0.47;0.30;;;24.80;67.90;;;;;;10040407;29;20047;-88
2022/07/02 20:10:16;;;;;;;3.85;0.30;;;24.50;68.40;;;;;;10086078;29;20108;-89
2022/07/02 20:15:19;;;;;;;0.63;0.20;;;24.30;69.30;;;;;;10144994;29;20056;-89
2022/07/02 20:20:23;;;;;;;0.57;0.30;;;24.00;71.10;;;;;;10142222;29;20056;-90
2022/07/02 20:25:25;;;;;;;0.60;0.30;;;23.60;71.70;;;;;;10151186;29;20063;-89
2022/07/02 20:30:27;;;;;;;4.38;0.30;;;23.20;73.30;;;;;;10155068;29;20062;-90
2022/07/02 20:35:29;;;;;;;1.13;0.30;;;22.90;75.00;;;;;;10176260;29;20115;-90
2022/07/02 20:40:32;;;;;;;0.55;0.40;;;22.60;77.80;;;;;;10155930;29;20052;-89
2022/07/02 20:45:34;;;;;;;2.83;0.35;;;22.40;78.90;;;;;;10177107;29;20052;-89
2022/07/02 20:50:36;;;;;;;0.70;0.30;;;22.30;80.60;;;;;;10168470;29;20056;-89
2022/07/02 20:55:38;;;;;;;2.65;0.30;;;22.00;81.70;;;;;;10165316;29;20061;-89
2022/07/02 21:00:41;;;;;;;0.70;0.38;;;21.90;82.80;;;;;;10182377;29;20082;-89
2022/07/02 21:05:45;;;;;;;0.98;0.40;;;21.60;85.10;;;;;;10168284;29;20074;-90
2022/07/02 21:10:47;;;;;;;1.20;0.40;;;21.40;86.70;;;;;;10167206;29;20066;-88
2022/07/02 21:15:49;;;;;;;2.13;0.52;;;21.20;88.00;;;;;;10199488;29;20115;-90
2022/07/02 21:20:57;;;;;;;3.30;0.40;;;21.10;90.00;;;;;;10186589;29;20118;-89
2022/07/02 21:25:59;;;;;;;0.35;0.22;;;20.90;90.90;;;;;;10172742;29;20142;-89
2022/07/02 21:31:02;;;;;;;0.50;0.30;;;20.60;92.00;;;;;;10181877;29;20058;-88
2022/07/02 21:36:04;;;;;;;2.70;0.32;;;20.50;92.90;;;;;;10184116;29;20131;-88
2022/07/02 21:41:07;;;;;;;2.15;0.30;;;20.40;93.40;;;;;;10182864;29;20044;-89
2022/07/02 21:46:09;;;;;;;6.00;0.30;;;20.20;94.10;;;;;;10177073;29;20064;-87
2022/07/02 21:51:11;;;;;;;1.15;0.50;;;20.10;95.00;;;;;;10189632;29;20067;-88
2022/07/02 21:56:15;;;;;;;0.68;0.38;;;20.00;95.70;;;;;;10181280;29;20043;-89
2022/07/02 22:01:17;;;;;;;1.02;0.40;;;19.80;96.70;;;;;;10182610;29;20123;-89
2022/07/02 22:06:18;;;;;;;0.65;0.40;;;19.70;97.80;;;;;;10159146;28;20115;-88
2022/07/02 22:11:20;;;;;;;1.70;0.40;;;19.60;98.70;;;;;;10185214;29;20131;-89
2022/07/02 22:16:22;;;;;;;0.80;0.40;;;19.60;99.50;;;;;;10176938;29;20107;-87
2022/07/02 22:21:25;;;;;;;5.03;0.50;;;19.40;99.90;;;;;;10189868;29;20059;-89
2022/07/02 22:26:27;;;;;;;1.00;0.50;;;19.30;99.90;;;;;;10209308;29;20055;-88
2022/07/02 22:31:29;;;;;;;0.40;0.40;;;19.20;99.90;;;;;;10186262;29;20476;-88
2022/07/02 22:36:32;;;;;;;7.75;0.50;;;19.00;99.90;;;;;;10190449;29;20059;-88
2022/07/02 22:41:34;;;;;;;1.10;0.40;;;18.90;99.90;;;;;;10169442;29;20066;-88
2022/07/02 22:46:36;;;;;;;1.48;0.40;;;18.80;99.90;;;;;;10199332;29;20135;-89
2022/07/02 22:51:37;;;;;;;1.42;0.60;;;18.70;99.90;;;;;;10191821;29;20411;-89
2022/07/02 22:56:39;;;;;;;0.68;0.45;;;18.70;99.90;;;;;;10167293;29;20064;-88
2022/07/02 23:01:48;;;;;;;4.13;0.45;;;18.70;99.90;;;;;;10111388;29;20064;-89
2022/07/02 23:06:50;;;;;;;1.63;0.50;;;18.40;99.90;;;;;;9979677;29;20117;-90
2022/07/02 23:12:02;;;;;;;1.67;0.60;;;18.40;99.90;;;;;;9897847;29;20048;-90
2022/07/02 23:17:40;;;;;;;1.02;0.30;;;18.30;99.90;;;;;;9849984;29;20064;-90
2022/07/02 23:23:03;;;;;;;0.82;0.45;;;18.20;99.90;;;;;;9914187;29;20128;-89
2022/07/02 23:28:23;;;;;;;3.28;0.47;;;18.00;99.90;;;;;;9792841;29;20442;-90
